createdAt,value
2017-12-15T00:01:09.954Z,3.4
2017-12-15T00:02:31.374Z,3.35
2017-12-15T00:03:53.155Z,3.32
2017-12-15T00:05:15.265Z,3.33
2017-12-15T00:06:36.993Z,3.42
2017-12-15T00:07:58.446Z,3.39
2017-12-15T00:09:20.155Z,3.4
2017-12-15T00:10:42.207Z,3.51
2017-12-15T00:12:03.690Z,3.43
2017-12-15T00:13:25.770Z,3.43
2017-12-15T00:14:47.765Z,3.52
2017-12-15T00:16:09.996Z,3.5
2017-12-15T00:17:31.701Z,3.45
2017-12-15T00:18:54.054Z,3.54
2017-12-15T00:20:16.293Z,3.48
2017-12-15T00:21:38.267Z,3.51
2017-12-15T00:22:59.791Z,3.6
2017-12-15T00:24:21.853Z,3.58
2017-12-15T00:25:43.802Z,3.6
2017-12-15T00:27:05.863Z,3.54
2017-12-15T00:28:27.836Z,3.65
2017-12-15T00:29:49.514Z,3.61
2017-12-15T00:31:11.212Z,3.65
2017-12-15T00:32:32.363Z,3.66
2017-12-15T00:33:54.158Z,3.68
2017-12-15T00:35:15.915Z,3.68
2017-12-15T00:36:37.888Z,3.61
2017-12-15T00:37:59.324Z,3.76
2017-12-15T00:39:21.053Z,3.73
2017-12-15T00:40:43.038Z,3.78
2017-12-15T00:42:05.023Z,3.69
2017-12-15T00:43:27.043Z,3.72
2017-12-15T00:44:48.212Z,3.68
2017-12-15T00:46:09.893Z,3.69
2017-12-15T00:47:31.654Z,3.69
2017-12-15T00:48:53.135Z,3.62
2017-12-15T00:50:14.820Z,3.7
2017-12-15T00:51:36.531Z,3.7
2017-12-15T00:52:58.312Z,3.78
2017-12-15T00:54:20.008Z,3.79
2017-12-15T00:55:41.747Z,3.75
2017-12-15T00:57:03.754Z,3.7
2017-12-15T00:58:25.184Z,3.79
2017-12-15T00:59:47.173Z,3.87
2017-12-15T01:01:09.495Z,3.84
2017-12-15T01:02:31.507Z,3.83
2017-12-15T01:03:53.190Z,3.86
2017-12-15T01:05:14.867Z,3.86
2017-12-15T01:06:36.904Z,3.93
2017-12-15T01:07:58.596Z,3.88
2017-12-15T01:09:20.274Z,3.93
2017-12-15T01:10:42.435Z,3.94
2017-12-15T01:12:03.891Z,3.91
2017-12-15T01:13:25.341Z,4.02
2017-12-15T01:14:46.493Z,4.02
2017-12-15T01:16:08.219Z,4.04
2017-12-15T01:17:29.644Z,4.08
2017-12-15T01:18:51.677Z,4.02
2017-12-15T01:20:13.910Z,4.08
2017-12-15T01:21:35.315Z,4.05
2017-12-15T01:22:57.374Z,4.09
2017-12-15T01:24:18.776Z,4.09
2017-12-15T01:25:40.735Z,4.09
2017-12-15T01:27:02.824Z,4.08
2017-12-15T01:28:25.174Z,4.05
2017-12-15T01:29:47.155Z,4.05
2017-12-15T01:31:09.106Z,4.11
2017-12-15T01:32:31.138Z,4.14
2017-12-15T01:33:53.175Z,4.12
2017-12-15T01:35:15.133Z,4.18
2017-12-15T01:36:36.545Z,4.15
2017-12-15T01:37:58.012Z,4.18
2017-12-15T01:39:20.004Z,4.16
2017-12-15T01:40:41.547Z,4.14
2017-12-15T01:42:03.044Z,4.14
2017-12-15T01:43:24.454Z,4.16
2017-12-15T01:44:46.145Z,4.2
2017-12-15T01:46:08.154Z,4.15
2017-12-15T01:47:30.104Z,4.23
2017-12-15T01:48:51.861Z,4.22
2017-12-15T01:50:13.275Z,4.29
2017-12-15T01:51:35.306Z,4.23
2017-12-15T01:52:56.725Z,4.22
2017-12-15T01:54:18.697Z,4.24
2017-12-15T01:55:40.384Z,4.15
2017-12-15T01:57:02.345Z,4.36
2017-12-15T01:58:24.693Z,4.32
2017-12-15T01:59:46.914Z,4.32
2017-12-15T02:01:09.322Z,4.32
2017-12-15T02:02:30.532Z,4.37
2017-12-15T02:03:52.265Z,4.29
2017-12-15T02:05:13.166Z,4.33
2017-12-15T02:06:34.854Z,4.4
2017-12-15T02:07:56.906Z,4.4
2017-12-15T02:09:18.861Z,4.42
2017-12-15T02:10:40.565Z,4.41
2017-12-15T02:12:02.257Z,4.44
2017-12-15T02:13:23.698Z,4.4
2017-12-15T02:14:45.266Z,4.45
2017-12-15T02:16:07.534Z,4.4
2017-12-15T02:17:29.214Z,4.34
2017-12-15T02:18:50.913Z,4.41
2017-12-15T02:20:12.324Z,4.44
2017-12-15T02:21:33.999Z,4.37
2017-12-15T02:22:55.835Z,4.47
2017-12-15T02:24:17.520Z,4.48
2017-12-15T02:25:39.076Z,4.47
2017-12-15T02:27:01.160Z,4.44
2017-12-15T02:28:22.897Z,4.48
2017-12-15T02:29:44.585Z,4.47
2017-12-15T02:31:06.597Z,4.44
2017-12-15T02:32:28.024Z,4.48
2017-12-15T02:33:49.463Z,4.5
2017-12-15T02:35:11.484Z,4.44
2017-12-15T02:36:32.647Z,4.51
2017-12-15T02:37:54.336Z,4.51
2017-12-15T02:39:16.296Z,4.5
2017-12-15T02:40:38.345Z,4.45
2017-12-15T02:42:00.046Z,4.52
2017-12-15T02:43:22.005Z,4.52
2017-12-15T02:44:43.710Z,4.47
2017-12-15T02:46:04.609Z,4.45
2017-12-15T02:47:26.585Z,4.51
2017-12-15T02:48:48.296Z,4.55
2017-12-15T02:50:09.713Z,4.51
2017-12-15T02:51:31.975Z,4.44
2017-12-15T02:52:53.669Z,4.5
2017-12-15T02:54:15.410Z,4.54
2017-12-15T02:55:36.305Z,4.52
2017-12-15T02:56:58.314Z,4.51
2017-12-15T02:58:20.015Z,4.5
2017-12-15T02:59:41.695Z,4.54
2017-12-15T03:01:03.653Z,4.54
2017-12-15T03:02:25.335Z,4.59
2017-12-15T03:03:47.035Z,4.51
2017-12-15T03:05:08.509Z,4.47
2017-12-15T03:06:30.195Z,4.55
2017-12-15T03:07:51.615Z,4.5
2017-12-15T03:09:13.077Z,4.5
2017-12-15T03:10:34.916Z,4.51
2017-12-15T03:11:56.353Z,4.58
2017-12-15T03:13:17.506Z,4.62
2017-12-15T03:14:38.961Z,4.55
2017-12-15T03:16:01.135Z,4.55
2017-12-15T03:17:22.553Z,4.55
2017-12-15T03:18:43.724Z,4.54
2017-12-15T03:20:05.164Z,4.54
2017-12-15T03:21:27.119Z,4.54
2017-12-15T03:22:48.836Z,4.58
2017-12-15T03:24:10.256Z,4.59
2017-12-15T03:25:32.224Z,4.59
2017-12-15T03:26:53.654Z,4.6
2017-12-15T03:28:15.455Z,4.67
2017-12-15T03:29:37.407Z,4.54
2017-12-15T03:30:59.626Z,4.6
2017-12-15T03:32:21.344Z,4.65
2017-12-15T03:33:43.334Z,4.59
2017-12-15T03:35:05.035Z,4.63
2017-12-15T03:36:27.265Z,4.63
2017-12-15T03:37:48.955Z,4.59
2017-12-15T03:39:10.382Z,4.66
2017-12-15T03:40:32.354Z,4.6
2017-12-15T03:41:53.957Z,4.66
2017-12-15T03:43:16.244Z,4.66
2017-12-15T03:44:37.772Z,4.62
2017-12-15T03:45:59.737Z,4.63
2017-12-15T03:47:21.425Z,4.62
2017-12-15T03:48:42.858Z,4.59
2017-12-15T03:50:05.084Z,4.65
2017-12-15T03:51:27.044Z,4.65
2017-12-15T03:52:49.046Z,4.67
2017-12-15T03:54:11.113Z,4.65
2017-12-15T03:55:32.524Z,4.6
2017-12-15T03:56:54.494Z,4.73
2017-12-15T03:58:16.386Z,4.65
2017-12-15T03:59:38.464Z,4.65
2017-12-15T04:00:59.903Z,4.65
2017-12-15T04:02:21.606Z,4.58
2017-12-15T04:03:44.001Z,4.58
2017-12-15T04:05:05.804Z,4.6
2017-12-15T04:06:26.964Z,4.66
2017-12-15T04:07:48.912Z,4.58
2017-12-15T04:09:10.235Z,4.6
2017-12-15T04:10:32.215Z,4.6
2017-12-15T04:11:53.637Z,4.6
2017-12-15T04:13:15.315Z,4.63
2017-12-15T04:14:37.530Z,4.58
2017-12-15T04:15:59.094Z,4.65
2017-12-15T04:17:21.430Z,4.65
2017-12-15T04:18:42.836Z,4.69
2017-12-15T04:20:04.646Z,4.63
2017-12-15T04:21:26.118Z,4.63
2017-12-15T04:22:47.887Z,4.72
2017-12-15T04:24:09.897Z,4.75
2017-12-15T04:25:31.856Z,4.6
2017-12-15T04:26:54.094Z,4.66
2017-12-15T04:28:16.069Z,4.72
2017-12-15T04:29:38.028Z,4.65
2017-12-15T04:30:59.731Z,4.67
2017-12-15T04:32:22.063Z,4.66
2017-12-15T04:33:43.885Z,4.73
2017-12-15T04:35:05.576Z,4.67
2017-12-15T04:36:27.357Z,4.63
2017-12-15T04:37:49.099Z,4.75
2017-12-15T04:39:10.544Z,4.84
2017-12-15T04:40:32.515Z,4.69
2017-12-15T04:41:54.475Z,4.7
2017-12-15T04:43:15.962Z,4.72
2017-12-15T04:44:38.253Z,4.75
2017-12-15T04:46:00.582Z,4.75
2017-12-15T04:47:22.545Z,4.63
2017-12-15T04:48:44.889Z,4.66
2017-12-15T04:50:06.576Z,4.66
2017-12-15T04:51:28.837Z,4.8
2017-12-15T04:52:50.523Z,4.67
2017-12-15T04:54:12.515Z,4.7
2017-12-15T04:55:34.496Z,4.65
2017-12-15T04:56:55.923Z,4.77
2017-12-15T04:58:17.614Z,4.77
2017-12-15T04:59:39.582Z,4.69
2017-12-15T05:01:01.014Z,4.69
2017-12-15T05:02:23.193Z,4.69
2017-12-15T05:03:44.929Z,4.69
2017-12-15T05:05:06.355Z,4.75
2017-12-15T05:06:27.773Z,4.75
2017-12-15T05:07:49.211Z,4.67
2017-12-15T05:09:10.959Z,4.7
2017-12-15T05:10:33.287Z,4.66
2017-12-15T05:11:54.728Z,4.72
2017-12-15T05:13:16.426Z,4.63
2017-12-15T05:14:38.515Z,4.72
2017-12-15T05:16:00.219Z,4.72
2017-12-15T05:17:21.660Z,4.7
2017-12-15T05:18:43.084Z,4.63
2017-12-15T05:20:05.087Z,4.72
2017-12-15T05:21:27.197Z,4.7
2017-12-15T05:22:49.426Z,4.7
2017-12-15T05:24:11.821Z,4.66
2017-12-15T05:25:33.596Z,4.66
2017-12-15T05:26:55.036Z,4.69
2017-12-15T05:28:16.735Z,4.67
2017-12-15T05:29:38.436Z,4.66
2017-12-15T05:31:00.131Z,4.7
2017-12-15T05:32:21.632Z,4.69
2017-12-15T05:33:43.595Z,4.7
2017-12-15T05:35:05.160Z,4.73
2017-12-15T05:36:27.316Z,4.65
2017-12-15T05:37:48.778Z,4.7
2017-12-15T05:39:10.164Z,4.72
2017-12-15T05:40:31.063Z,4.72
2017-12-15T05:41:52.550Z,4.7
2017-12-15T05:43:14.243Z,4.7
2017-12-15T05:44:36.046Z,4.6
2017-12-15T05:45:57.586Z,4.72
2017-12-15T05:47:19.404Z,4.65
2017-12-15T05:48:41.547Z,4.69
2017-12-15T05:50:03.236Z,4.62
2017-12-15T05:51:25.313Z,4.7
2017-12-15T05:52:47.074Z,4.7
2017-12-15T05:54:08.764Z,4.7
2017-12-15T05:55:30.233Z,4.67
2017-12-15T05:56:51.944Z,4.66
2017-12-15T05:58:13.760Z,4.66
2017-12-15T05:59:35.442Z,4.63
2017-12-15T06:00:57.003Z,4.67
2017-12-15T06:02:18.726Z,4.62
2017-12-15T06:03:40.512Z,4.67
2017-12-15T06:05:02.218Z,4.6
2017-12-15T06:06:24.023Z,4.66
2017-12-15T06:07:45.834Z,4.7
2017-12-15T06:09:07.514Z,4.67
2017-12-15T06:10:29.327Z,4.66
2017-12-15T06:11:51.335Z,4.6
2017-12-15T06:13:13.377Z,4.69
2017-12-15T06:14:35.080Z,4.7
2017-12-15T06:15:56.507Z,4.72
2017-12-15T06:17:18.760Z,4.67
2017-12-15T06:18:40.560Z,4.66
2017-12-15T06:20:02.132Z,4.67
2017-12-15T06:21:24.103Z,4.66
2017-12-15T06:22:46.334Z,4.63
2017-12-15T06:24:08.024Z,4.66
2017-12-15T06:25:29.988Z,4.75
2017-12-15T06:26:51.962Z,4.7
2017-12-15T06:28:14.173Z,4.6
2017-12-15T06:29:36.214Z,4.45
2017-12-15T06:30:58.703Z,4.34
2017-12-15T06:32:20.416Z,4.24
2017-12-15T06:33:42.419Z,4.15
2017-12-15T06:35:04.111Z,4.08
2017-12-15T06:36:25.894Z,3.97
2017-12-15T06:37:47.722Z,4.04
2017-12-15T06:39:09.952Z,4.08
2017-12-15T06:40:31.450Z,4.05
2017-12-15T06:41:53.135Z,4.14
2017-12-15T06:43:14.824Z,4.2
2017-12-15T06:44:37.003Z,4.24
2017-12-15T06:45:59.235Z,4.34
2017-12-15T06:47:21.565Z,4.37
2017-12-15T06:48:43.735Z,4.44
2017-12-15T06:50:05.714Z,4.36
2017-12-15T06:51:27.415Z,4.4
2017-12-15T06:52:49.090Z,4.37
2017-12-15T06:54:10.554Z,4.4
2017-12-15T06:55:31.973Z,4.44
2017-12-15T06:56:53.144Z,4.45
2017-12-15T06:58:15.185Z,4.54
2017-12-15T06:59:36.994Z,4.59
2017-12-15T07:00:58.733Z,4.55
2017-12-15T07:02:20.473Z,4.62
2017-12-15T07:03:42.172Z,4.54
2017-12-15T07:05:03.727Z,4.58
2017-12-15T07:06:26.074Z,4.59
2017-12-15T07:07:47.777Z,4.63
2017-12-15T07:09:09.752Z,4.67
2017-12-15T07:10:31.727Z,4.66
2017-12-15T07:11:53.247Z,4.62
2017-12-15T07:13:15.031Z,4.6
2017-12-15T07:14:36.996Z,4.65
2017-12-15T07:15:58.954Z,4.69
2017-12-15T07:17:20.113Z,4.7
2017-12-15T07:18:41.266Z,4.7
2017-12-15T07:20:03.294Z,4.7
2017-12-15T07:21:25.529Z,4.66
2017-12-15T07:22:47.232Z,4.72
2017-12-15T07:24:09.250Z,4.78
2017-12-15T07:25:31.284Z,4.84
2017-12-15T07:26:53.014Z,4.78
2017-12-15T07:28:14.639Z,4.85
2017-12-15T07:29:36.064Z,4.8
2017-12-15T07:30:58.025Z,4.88
2017-12-15T07:32:19.734Z,4.89
2017-12-15T07:33:41.816Z,4.96
2017-12-15T07:35:03.853Z,4.96
2017-12-15T07:36:25.553Z,4.91
2017-12-15T07:37:46.704Z,5
2017-12-15T07:39:08.143Z,4.91
2017-12-15T07:40:30.094Z,5
2017-12-15T07:41:51.881Z,5.03
2017-12-15T07:43:13.835Z,5.04
2017-12-15T07:44:35.675Z,5.04
2017-12-15T07:45:57.646Z,4.97
2017-12-15T07:47:19.080Z,5.04
2017-12-15T07:48:40.543Z,5.06
2017-12-15T07:50:02.644Z,5.06
2017-12-15T07:51:24.094Z,4.97
2017-12-15T07:52:46.057Z,5.04
2017-12-15T07:54:07.513Z,4.99
2017-12-15T07:55:29.799Z,5
2017-12-15T07:56:51.862Z,4.99
2017-12-15T07:58:13.206Z,4.99
2017-12-15T07:59:35.424Z,4.88
2017-12-15T08:00:57.392Z,4.91
2017-12-15T08:02:19.394Z,4.96
2017-12-15T08:03:41.168Z,4.88
2017-12-15T08:05:02.844Z,5.02
2017-12-15T08:06:24.827Z,5.03
2017-12-15T08:07:46.784Z,4.96
2017-12-15T08:09:08.471Z,4.99
2017-12-15T08:10:30.434Z,5
2017-12-15T08:11:52.408Z,5
2017-12-15T08:13:14.635Z,5.04
2017-12-15T08:14:36.385Z,5.06
2017-12-15T08:15:58.355Z,5.04
2017-12-15T08:17:20.435Z,5.1
2017-12-15T08:18:41.592Z,5.07
2017-12-15T08:20:03.848Z,5.06
2017-12-15T08:21:25.543Z,5.12
2017-12-15T08:22:46.967Z,5.12
2017-12-15T08:24:08.538Z,5.13
2017-12-15T08:25:30.455Z,5.13
2017-12-15T08:26:52.325Z,5.22
2017-12-15T08:28:14.007Z,5.27
2017-12-15T08:29:36.265Z,5.27
2017-12-15T08:30:57.721Z,5.28
2017-12-15T08:32:19.435Z,5.2
2017-12-15T08:33:41.410Z,5.18
2017-12-15T08:35:03.427Z,5.21
2017-12-15T08:36:25.400Z,5.21
2017-12-15T08:37:47.677Z,5.22
2017-12-15T08:39:09.654Z,5.25
2017-12-15T08:40:31.632Z,5.25
2017-12-15T08:41:53.064Z,5.3
2017-12-15T08:43:14.924Z,5.3
2017-12-15T08:44:36.760Z,5.3
2017-12-15T08:45:58.798Z,5.31
2017-12-15T08:47:20.565Z,5.31
2017-12-15T08:48:42.315Z,5.27
2017-12-15T08:50:04.144Z,5.31
2017-12-15T08:51:26.060Z,5.3
2017-12-15T08:52:48.137Z,5.28
2017-12-15T08:54:10.099Z,5.27
2017-12-15T08:55:31.510Z,5.3
2017-12-15T08:56:53.030Z,5.28
2017-12-15T08:58:14.836Z,5.27
2017-12-15T08:59:36.282Z,5.4
2017-12-15T09:00:57.975Z,5.43
2017-12-15T09:02:19.665Z,5.38
2017-12-15T09:03:41.125Z,5.42
2017-12-15T09:05:02.833Z,5.45
2017-12-15T09:06:25.054Z,5.48
2017-12-15T09:07:47.034Z,5.4
2017-12-15T09:09:08.997Z,5.42
2017-12-15T09:10:31.246Z,5.46
2017-12-15T09:11:53.311Z,5.42
2017-12-15T09:13:14.772Z,5.45
2017-12-15T09:14:36.836Z,5.4
2017-12-15T09:15:58.539Z,5.42
2017-12-15T09:17:20.546Z,5.35
2017-12-15T09:18:42.454Z,5.43
2017-12-15T09:20:04.154Z,5.36
2017-12-15T09:21:26.135Z,5.39
2017-12-15T09:22:47.316Z,5.46
2017-12-15T09:24:08.735Z,5.38
2017-12-15T09:25:30.285Z,5.35
2017-12-15T09:26:52.329Z,5.35
2017-12-15T09:28:14.285Z,5.35
2017-12-15T09:29:35.799Z,5.33
2017-12-15T09:30:57.519Z,5.42
2017-12-15T09:32:19.512Z,5.38
2017-12-15T09:33:41.275Z,5.43
2017-12-15T09:35:03.422Z,5.39
2017-12-15T09:36:25.416Z,5.42
2017-12-15T09:37:47.113Z,5.4
2017-12-15T09:39:08.538Z,5.28
2017-12-15T09:40:30.273Z,5.35
2017-12-15T09:41:52.346Z,5.27
2017-12-15T09:43:14.597Z,5.28
2017-12-15T09:44:36.934Z,5.3
2017-12-15T09:45:58.648Z,5.25
2017-12-15T09:47:20.459Z,5.27
2017-12-15T09:48:42.164Z,5.43
2017-12-15T09:50:04.426Z,5.38
2017-12-15T09:51:26.127Z,5.48
2017-12-15T09:52:48.465Z,5.45
2017-12-15T09:54:10.177Z,5.53
2017-12-15T09:55:31.965Z,5.54
2017-12-15T09:56:54.294Z,5.57
2017-12-15T09:58:15.994Z,5.43
2017-12-15T09:59:37.425Z,5.61
2017-12-15T10:00:58.871Z,5.6
2017-12-15T10:02:21.016Z,5.6
2017-12-15T10:03:43.375Z,5.63
2017-12-15T10:05:05.356Z,5.72
2017-12-15T10:06:27.393Z,5.74
2017-12-15T10:07:49.402Z,5.65
2017-12-15T10:09:11.369Z,5.67
2017-12-15T10:10:33.146Z,5.72
2017-12-15T10:11:54.664Z,5.67
2017-12-15T10:13:16.353Z,5.67
2017-12-15T10:14:38.335Z,5.68
2017-12-15T10:15:59.779Z,5.71
2017-12-15T10:17:21.694Z,5.78
2017-12-15T10:18:43.475Z,5.9
2017-12-15T10:20:05.764Z,5.83
2017-12-15T10:21:28.006Z,5.86
2017-12-15T10:22:49.684Z,5.79
2017-12-15T10:24:11.367Z,5.78
2017-12-15T10:25:33.607Z,5.76
2017-12-15T10:26:55.046Z,5.82
2017-12-15T10:28:17.057Z,5.75
2017-12-15T10:29:38.834Z,5.83
2017-12-15T10:30:59.986Z,5.82
2017-12-15T10:32:21.695Z,5.78
2017-12-15T10:33:43.186Z,5.76
2017-12-15T10:35:05.164Z,5.76
2017-12-15T10:36:26.965Z,5.85
2017-12-15T10:37:49.021Z,5.96
2017-12-15T10:39:10.713Z,5.89
2017-12-15T10:40:32.153Z,5.9
2017-12-15T10:41:54.244Z,5.86
2017-12-15T10:43:15.945Z,5.89
2017-12-15T10:44:37.645Z,5.83
2017-12-15T10:45:59.336Z,5.9
2017-12-15T10:47:20.796Z,5.85
2017-12-15T10:48:42.482Z,5.9
2017-12-15T10:50:04.084Z,5.97
2017-12-15T10:51:26.108Z,5.85
2017-12-15T10:52:48.595Z,5.81
2017-12-15T10:54:10.069Z,5.9
2017-12-15T10:55:31.753Z,5.79
2017-12-15T10:56:53.786Z,5.81
2017-12-15T10:58:15.594Z,5.82
2017-12-15T10:59:37.293Z,5.76
2017-12-15T11:00:59.139Z,5.81
2017-12-15T11:02:21.151Z,5.86
2017-12-15T11:03:42.906Z,5.81
2017-12-15T11:05:04.068Z,5.89
2017-12-15T11:06:26.015Z,5.97
2017-12-15T11:07:47.985Z,5.99
2017-12-15T11:09:09.975Z,5.96
2017-12-15T11:10:31.144Z,6.04
2017-12-15T11:11:53.117Z,6.11
2017-12-15T11:13:14.342Z,6.19
2017-12-15T11:14:36.315Z,6.18
2017-12-15T11:15:57.884Z,6.14
2017-12-15T11:17:19.844Z,6.06
2017-12-15T11:18:41.016Z,6.08
2017-12-15T11:20:02.704Z,6.06
2017-12-15T11:21:24.804Z,6.03
2017-12-15T11:22:46.766Z,6.06
2017-12-15T11:24:08.456Z,6.11
2017-12-15T11:25:29.894Z,6.18
2017-12-15T11:26:51.074Z,6.28
2017-12-15T11:28:12.803Z,6.22
2017-12-15T11:29:34.785Z,6.4
2017-12-15T11:30:56.216Z,6.36
2017-12-15T11:32:18.336Z,6.38
2017-12-15T11:33:40.338Z,6.4
2017-12-15T11:35:02.055Z,6.41
2017-12-15T11:36:24.084Z,6.28
2017-12-15T11:37:45.506Z,6.22
2017-12-15T11:39:07.768Z,6.34
2017-12-15T11:40:29.464Z,6.31
2017-12-15T11:41:51.777Z,6.41
2017-12-15T11:43:13.480Z,6.43
2017-12-15T11:44:35.464Z,6.38
2017-12-15T11:45:57.247Z,6.36
2017-12-15T11:47:18.937Z,6.49
2017-12-15T11:48:40.624Z,6.58
2017-12-15T11:50:02.395Z,6.44
2017-12-15T11:51:24.100Z,6.48
2017-12-15T11:52:46.166Z,6.43
2017-12-15T11:54:07.615Z,6.48
2017-12-15T11:55:29.843Z,6.44
2017-12-15T11:56:51.523Z,6.41
2017-12-15T11:58:12.688Z,6.37
2017-12-15T11:59:34.408Z,6.19
2017-12-15T12:00:55.576Z,6.31
2017-12-15T12:02:17.907Z,6.22
2017-12-15T12:03:39.595Z,6.21
2017-12-15T12:05:01.604Z,6.09
2017-12-15T12:06:23.311Z,6.06
2017-12-15T12:07:45.440Z,6.04
2017-12-15T12:09:07.444Z,6.09
2017-12-15T12:10:29.404Z,6.09
2017-12-15T12:11:51.116Z,6
2017-12-15T12:13:13.071Z,5.99
2017-12-15T12:14:35.055Z,5.99
2017-12-15T12:15:56.748Z,6.03
2017-12-15T12:17:18.444Z,6.14
2017-12-15T12:18:39.963Z,6.19
2017-12-15T12:20:01.443Z,6.15
2017-12-15T12:21:23.696Z,6.21
2017-12-15T12:22:45.411Z,6.11
2017-12-15T12:24:07.405Z,6.18
2017-12-15T12:25:29.163Z,6.09
2017-12-15T12:26:50.107Z,6.12
2017-12-15T12:28:12.076Z,6.09
2017-12-15T12:29:34.310Z,6.11
2017-12-15T12:30:56.544Z,6.22
2017-12-15T12:32:18.586Z,6.18
2017-12-15T12:33:40.024Z,6.25
2017-12-15T12:35:01.483Z,6.25
2017-12-15T12:36:23.175Z,6.14
2017-12-15T12:37:44.876Z,6.11
2017-12-15T12:39:06.305Z,6.09
2017-12-15T12:40:27.733Z,6.12
2017-12-15T12:41:49.433Z,6.12
2017-12-15T12:43:11.157Z,6.06
2017-12-15T12:44:33.194Z,6.03
2017-12-15T12:45:54.938Z,6.04
2017-12-15T12:47:16.646Z,5.93
2017-12-15T12:48:38.372Z,5.96
2017-12-15T12:50:00.335Z,5.86
2017-12-15T12:51:22.057Z,5.85
2017-12-15T12:52:44.171Z,5.85
2017-12-15T12:54:06.393Z,5.79
2017-12-15T12:55:28.246Z,5.91
2017-12-15T12:56:50.333Z,5.89
2017-12-15T12:58:12.560Z,5.9
2017-12-15T12:59:34.820Z,5.82
2017-12-15T13:00:56.646Z,5.82
2017-12-15T13:02:18.670Z,5.76
2017-12-15T13:03:40.707Z,5.83
2017-12-15T13:05:02.705Z,5.81
2017-12-15T13:06:24.161Z,5.74
2017-12-15T13:07:45.638Z,5.65
2017-12-15T13:09:07.964Z,5.72
2017-12-15T13:10:29.784Z,5.68
2017-12-15T13:11:51.794Z,5.56
2017-12-15T13:13:13.506Z,5.57
2017-12-15T13:14:35.560Z,5.58
2017-12-15T13:15:56.997Z,5.57
2017-12-15T13:17:18.444Z,5.57
2017-12-15T13:18:40.724Z,5.56
2017-12-15T13:20:02.263Z,5.54
2017-12-15T13:21:23.728Z,5.58
2017-12-15T13:22:45.994Z,5.57
2017-12-15T13:24:07.706Z,5.64
2017-12-15T13:25:29.684Z,5.61
2017-12-15T13:26:51.394Z,5.64
2017-12-15T13:28:13.480Z,5.79
2017-12-15T13:29:35.962Z,5.81
2017-12-15T13:30:57.666Z,5.79
2017-12-15T13:32:19.164Z,5.97
2017-12-15T13:33:41.618Z,6.09
2017-12-15T13:35:03.958Z,6.08
2017-12-15T13:36:26.081Z,6.09
2017-12-15T13:37:48.064Z,6.08
2017-12-15T13:39:09.773Z,6.09
2017-12-15T13:40:31.676Z,6.15
2017-12-15T13:41:54.034Z,6.12
2017-12-15T13:43:16.038Z,6.12
2017-12-15T13:44:38.317Z,6.12
2017-12-15T13:46:00.027Z,6.04
2017-12-15T13:47:22.057Z,6
2017-12-15T13:48:44.333Z,6
2017-12-15T13:50:06.468Z,5.99
2017-12-15T13:51:28.183Z,5.96
2017-12-15T13:52:49.875Z,5.94
2017-12-15T13:54:12.134Z,6.01
2017-12-15T13:55:34.204Z,5.97
2017-12-15T13:56:55.993Z,5.96
2017-12-15T13:58:18.224Z,5.97
2017-12-15T13:59:39.933Z,5.93
2017-12-15T14:01:02.267Z,6.01
2017-12-15T14:02:24.290Z,5.97
2017-12-15T14:03:45.734Z,5.97
2017-12-15T14:05:08.022Z,5.94
2017-12-15T14:06:29.999Z,5.86
2017-12-15T14:07:52.315Z,5.93
2017-12-15T14:09:14.429Z,5.9
2017-12-15T14:10:36.153Z,5.93
2017-12-15T14:11:57.368Z,5.86
2017-12-15T14:13:19.449Z,5.82
2017-12-15T14:14:41.714Z,5.79
2017-12-15T14:16:03.455Z,5.78
2017-12-15T14:17:25.714Z,5.83
2017-12-15T14:18:47.455Z,5.82
2017-12-15T14:20:09.166Z,5.83
2017-12-15T14:21:30.929Z,5.82
2017-12-15T14:22:53.184Z,5.93
2017-12-15T14:24:15.181Z,6
2017-12-15T14:25:37.344Z,5.99
2017-12-15T14:26:59.259Z,5.9
2017-12-15T14:28:21.576Z,5.96
2017-12-15T14:29:43.935Z,5.94
2017-12-15T14:31:06.280Z,5.99
2017-12-15T14:32:28.059Z,5.94
2017-12-15T14:33:50.066Z,5.97
2017-12-15T14:35:11.573Z,5.93
2017-12-15T14:36:33.286Z,5.94
2017-12-15T14:37:55.484Z,5.97
2017-12-15T14:39:17.782Z,5.96
2017-12-15T14:40:39.885Z,5.97
2017-12-15T14:42:01.875Z,5.9
2017-12-15T14:43:23.686Z,5.83
2017-12-15T14:44:45.975Z,5.9
2017-12-15T14:46:08.246Z,5.83
2017-12-15T14:47:30.998Z,5.91
2017-12-15T14:49:02.776Z,6.01
2017-12-15T14:50:25.070Z,5.94
2017-12-15T14:51:46.776Z,5.93
2017-12-15T14:53:08.781Z,5.81
2017-12-15T14:54:31.260Z,5.82
2017-12-15T14:55:53.552Z,5.83
2017-12-15T14:57:15.387Z,5.81
2017-12-15T14:58:37.685Z,5.85
2017-12-15T14:59:59.945Z,5.82
2017-12-15T15:01:22.245Z,5.81
2017-12-15T15:02:44.243Z,5.83
2017-12-15T15:04:06.024Z,5.86
2017-12-15T15:05:28.277Z,5.85
2017-12-15T15:06:50.544Z,5.79
2017-12-15T15:08:12.585Z,5.82
2017-12-15T15:09:34.304Z,5.86
2017-12-15T15:10:56.298Z,5.85
2017-12-15T15:12:18.552Z,5.85
2017-12-15T15:13:40.257Z,5.81
2017-12-15T15:15:02.828Z,5.76
2017-12-15T15:16:24.539Z,5.85
2017-12-15T15:17:46.817Z,5.85
2017-12-15T15:19:09.097Z,5.83
2017-12-15T15:20:30.815Z,6.03
2017-12-15T15:21:53.286Z,6.03
2017-12-15T15:23:14.996Z,5.97
2017-12-15T15:24:37.355Z,5.97
2017-12-15T15:25:59.403Z,5.99
2017-12-15T15:27:21.594Z,5.94
2017-12-15T15:28:43.861Z,6
2017-12-15T15:30:05.982Z,5.94
2017-12-15T15:31:28.593Z,5.91
2017-12-15T15:32:50.315Z,5.83
2017-12-15T15:34:12.054Z,5.97
2017-12-15T15:35:33.770Z,5.96
2017-12-15T15:36:56.027Z,5.94
2017-12-15T15:38:18.041Z,5.91
2017-12-15T15:39:40.009Z,5.83
2017-12-15T15:41:01.714Z,5.75
2017-12-15T15:42:23.750Z,5.75
2017-12-15T15:43:45.835Z,5.71
2017-12-15T15:45:08.115Z,5.72
2017-12-15T15:46:29.829Z,5.72
2017-12-15T15:47:52.314Z,5.72
2017-12-15T15:49:14.310Z,5.64
2017-12-15T15:50:36.044Z,5.63
2017-12-15T15:51:58.186Z,5.68
2017-12-15T15:53:20.603Z,5.71
2017-12-15T15:54:42.496Z,5.64
2017-12-15T15:56:04.871Z,5.63
2017-12-15T15:57:26.873Z,5.58
2017-12-15T15:58:48.338Z,5.67
2017-12-15T16:00:10.367Z,5.6
2017-12-15T16:01:32.118Z,5.71
2017-12-15T16:02:54.384Z,5.64
2017-12-15T16:04:16.393Z,5.65
2017-12-15T16:05:37.927Z,5.67
2017-12-15T16:06:59.648Z,5.64
2017-12-15T16:08:21.141Z,5.65
2017-12-15T16:09:43.420Z,5.61
2017-12-15T16:11:05.167Z,5.49
2017-12-15T16:12:26.994Z,5.6
2017-12-15T16:13:48.977Z,5.51
2017-12-15T16:15:11.048Z,5.42
2017-12-15T16:16:33.387Z,5.38
2017-12-15T16:17:55.387Z,5.4
2017-12-15T16:19:16.588Z,5.31
2017-12-15T16:20:38.844Z,5.22
2017-12-15T16:22:01.098Z,5.2
2017-12-15T16:23:23.105Z,5.18
2017-12-15T16:24:44.581Z,5.15
2017-12-15T16:26:06.842Z,5.15
2017-12-15T16:27:28.927Z,5.17
2017-12-15T16:28:50.654Z,5.2
2017-12-15T16:30:13.162Z,5.25
2017-12-15T16:31:35.432Z,5.2
2017-12-15T16:32:57.219Z,5.17
2017-12-15T16:34:19.263Z,5.12
2017-12-15T16:35:41.228Z,5.04
2017-12-15T16:37:03.568Z,5
2017-12-15T16:38:25.565Z,5
2017-12-15T16:39:47.841Z,4.85
2017-12-15T16:41:09.828Z,4.89
2017-12-15T16:42:32.216Z,4.89
2017-12-15T16:43:54.067Z,4.97
2017-12-15T16:45:16.327Z,4.99
2017-12-15T16:46:38.433Z,5.06
2017-12-15T16:48:00.315Z,5.03
2017-12-15T16:49:22.116Z,5.03
2017-12-15T16:50:44.031Z,5.09
2017-12-15T16:52:06.219Z,5.18
2017-12-15T16:53:28.465Z,5.15
2017-12-15T16:54:50.854Z,5.21
2017-12-15T16:56:13.188Z,5.24
2017-12-15T16:57:35.235Z,5.33
2017-12-15T16:58:57.498Z,5.27
2017-12-15T17:00:19.611Z,5.25
2017-12-15T17:01:41.075Z,5.31
2017-12-15T17:03:02.789Z,5.27
2017-12-15T17:04:24.276Z,5.3
2017-12-15T17:05:45.935Z,5.4
2017-12-15T17:07:08.151Z,5.42
2017-12-15T17:08:30.313Z,5.36
2017-12-15T17:09:52.107Z,5.43
2017-12-15T17:11:13.795Z,5.38
2017-12-15T17:12:36.155Z,5.31
2017-12-15T17:13:58.186Z,5.4
2017-12-15T17:15:20.000Z,5.4
2017-12-15T17:16:41.723Z,5.45
2017-12-15T17:18:03.734Z,5.43
2017-12-15T17:19:25.566Z,5.42
2017-12-15T17:20:47.320Z,5.56
2017-12-15T17:22:09.049Z,5.42
2017-12-15T17:23:30.805Z,5.43
2017-12-15T17:24:52.816Z,5.49
2017-12-15T17:26:46.720Z,5.51
2017-12-15T17:28:08.715Z,5.48
2017-12-15T17:29:30.715Z,5.45
2017-12-15T17:30:53.071Z,5.43
2017-12-15T17:32:15.324Z,5.48
2017-12-15T17:33:37.355Z,5.46
2017-12-15T17:34:59.730Z,5.46
2017-12-15T17:36:21.701Z,5.48
2017-12-15T17:37:43.996Z,5.45
2017-12-15T17:39:06.253Z,5.42
2017-12-15T17:40:28.635Z,5.48
2017-12-15T17:41:50.415Z,5.38
2017-12-15T17:43:12.464Z,5.39
2017-12-15T17:44:34.213Z,5.45
2017-12-15T17:45:56.281Z,5.4
2017-12-15T17:47:18.274Z,5.42
2017-12-15T17:48:40.526Z,5.3
2017-12-15T17:50:02.685Z,5.22
2017-12-15T17:51:24.946Z,5.3
2017-12-15T17:52:46.924Z,5.22
2017-12-15T17:54:09.176Z,5.22
2017-12-15T17:55:31.214Z,5.25
2017-12-15T17:56:53.203Z,5.22
2017-12-15T17:58:14.904Z,5.25
2017-12-15T17:59:36.875Z,5.42
2017-12-15T18:00:58.723Z,5.36
2017-12-15T18:02:20.994Z,5.43
2017-12-15T18:03:43.308Z,5.38
2017-12-15T18:05:05.035Z,5.4
2017-12-15T18:06:27.299Z,5.45
2017-12-15T18:07:49.085Z,5.42
2017-12-15T18:09:12.465Z,5.39
2017-12-15T18:10:34.473Z,5.46
2017-12-15T18:11:56.455Z,5.46
2017-12-15T18:13:18.281Z,5.45
2017-12-15T18:14:40.638Z,5.42
2017-12-15T18:16:02.952Z,5.46